Terminal Aerodrome Forecast
Issued by NWS

Home | Current Version | Previous Version | Text Only | Print | Product List | Glossary On
Versions: 1 2 3 4 5 6 7 8 9 10 11 12 13 14 15 16 17
000
FTUS46 KMFR 261453 AAC
TAFLMT
TAF AMD
KLMT 261453Z 2615/2712 VRB03KT P6SM SKC
     FM261700 31006KT P6SM SCT150
     FM262200 33012G20KT P6SM SKC
     FM270500 VRB03KT P6SM SKC=

USA.gov is the U.S. government's official web portal to all federal, state and local government web resources and services.